createdAt,value
2022-10-08T00:01:39.712Z,66.22
2022-10-08T00:04:42.083Z,66.70
2022-10-08T00:07:45.598Z,66.35
2022-10-08T00:10:53.493Z,66.42
2022-10-08T00:13:56.219Z,66.34
2022-10-08T00:16:58.515Z,66.71
2022-10-08T00:20:01.482Z,66.87
2022-10-08T00:23:03.744Z,66.61
2022-10-08T00:26:07.246Z,67.19
2022-10-08T00:29:11.840Z,67.13
2022-10-08T00:32:14.122Z,66.88
2022-10-08T00:35:16.423Z,66.75
2022-10-08T00:38:18.685Z,67.48
2022-10-08T00:41:22.927Z,67.06
2022-10-08T00:44:47.019Z,66.99
2022-10-08T00:47:49.550Z,67.46
2022-10-08T00:50:51.929Z,66.80
2022-10-08T00:53:54.535Z,66.57
2022-10-08T00:56:56.830Z,66.97
2022-10-08T00:59:59.147Z,67.91
2022-10-08T01:03:03.288Z,67.54
2022-10-08T01:06:08.597Z,67.69
2022-10-08T01:09:27.905Z,67.19
2022-10-08T01:12:37.061Z,67.94
2022-10-08T01:15:45.960Z,68.36
2022-10-08T01:18:50.880Z,68.15
2022-10-08T01:22:14.462Z,68.00
2022-10-08T01:26:04.978Z,68.22
2022-10-08T01:29:44.739Z,67.94
2022-10-08T01:32:52.589Z,68.00
2022-10-08T01:35:57.826Z,68.42
2022-10-08T01:39:04.780Z,68.18
2022-10-08T01:42:08.804Z,68.68
2022-10-08T01:45:14.518Z,68.81
2022-10-08T01:48:22.489Z,68.11
2022-10-08T01:51:33.103Z,68.78
2022-10-08T01:54:36.186Z,68.13
2022-10-08T01:57:39.488Z,68.15
2022-10-08T02:00:42.385Z,67.96
2022-10-08T02:04:05.326Z,68.85
2022-10-08T02:07:15.141Z,68.16
2022-10-08T02:10:21.881Z,68.27
2022-10-08T02:13:24.277Z,68.25
2022-10-08T02:16:29.507Z,68.60
2022-10-08T02:19:53.064Z,68.75
2022-10-08T02:23:14.197Z,68.92
2022-10-08T02:26:22.499Z,69.26
2022-10-08T02:29:30.877Z,69.30
2022-10-08T02:32:40.229Z,68.57
2022-10-08T02:35:52.155Z,68.81
2022-10-08T02:38:57.733Z,68.62
2022-10-08T02:42:02.277Z,68.51
2022-10-08T02:45:13.118Z,67.94
2022-10-08T02:48:21.188Z,68.52
2022-10-08T02:51:24.733Z,68.42
2022-10-08T02:54:27.170Z,68.77
2022-10-08T02:57:38.254Z,68.64
2022-10-08T03:00:52.072Z,68.79
2022-10-08T03:04:01.575Z,68.63
2022-10-08T03:07:04.427Z,68.70
2022-10-08T03:10:07.647Z,68.51
2022-10-08T03:13:10.961Z,68.98
2022-10-08T03:16:15.654Z,68.64
2022-10-08T03:19:18.911Z,68.51
2022-10-08T03:22:21.203Z,68.36
2022-10-08T03:25:23.433Z,68.80
2022-10-08T03:28:25.687Z,68.49
2022-10-08T03:31:28.020Z,68.64
2022-10-08T03:34:30.275Z,68.47
2022-10-08T03:37:32.564Z,68.63
2022-10-08T03:40:34.833Z,68.86
2022-10-08T03:43:37.036Z,68.68
2022-10-08T03:46:39.573Z,69.64
2022-10-08T03:49:42.030Z,68.38
2022-10-08T03:52:44.546Z,68.42
2022-10-08T03:55:47.016Z,68.53
2022-10-08T03:58:53.737Z,68.48
2022-10-08T04:01:56.205Z,68.52
2022-10-08T04:04:58.563Z,68.23
2022-10-08T04:08:00.918Z,68.48
2022-10-08T04:11:05.156Z,68.06
2022-10-08T04:14:07.517Z,68.26
2022-10-08T04:17:09.814Z,68.35
2022-10-08T04:20:12.506Z,68.55
2022-10-08T04:23:14.781Z,68.24
2022-10-08T04:26:17.529Z,68.62
2022-10-08T04:29:19.849Z,68.48
2022-10-08T04:32:22.127Z,68.12
2022-10-08T04:35:24.918Z,68.04
2022-10-08T04:38:28.369Z,68.48
2022-10-08T04:41:30.623Z,68.63
2022-10-08T04:44:32.841Z,68.73
2022-10-08T04:47:35.114Z,68.96
2022-10-08T04:50:37.631Z,69.06
2022-10-08T04:53:39.985Z,68.97
2022-10-08T04:56:42.202Z,69.16
2022-10-08T05:00:05.743Z,69.20
2022-10-08T05:03:06.737Z,69.42
2022-10-08T05:06:09.336Z,69.79
2022-10-08T05:09:12.051Z,69.59
2022-10-08T05:12:14.292Z,69.61
2022-10-08T05:15:16.709Z,69.58
2022-10-08T05:18:19.051Z,69.89
2022-10-08T05:21:24.055Z,69.50
2022-10-08T05:24:26.474Z,69.42
2022-10-08T05:27:28.949Z,69.51
2022-10-08T05:30:31.229Z,69.48
2022-10-08T05:33:35.994Z,69.34
2022-10-08T05:36:38.239Z,69.73
2022-10-08T05:39:40.509Z,69.59
2022-10-08T05:42:42.768Z,69.95
2022-10-08T05:45:52.039Z,70.12
2022-10-08T05:48:55.696Z,70.07
2022-10-08T05:51:58.688Z,69.69
2022-10-08T05:55:00.973Z,69.50
2022-10-08T05:58:03.230Z,69.25
2022-10-08T06:01:08.697Z,68.27
2022-10-08T06:04:11.739Z,69.28
2022-10-08T06:07:13.989Z,68.98
2022-10-08T06:10:16.329Z,68.10
2022-10-08T06:13:19.856Z,68.53
2022-10-08T06:16:22.589Z,68.34
2022-10-08T06:19:25.016Z,68.52
2022-10-08T06:22:27.345Z,68.64
2022-10-08T06:25:29.636Z,68.53
2022-10-08T06:28:33.373Z,67.52
2022-10-08T06:31:36.066Z,67.39
2022-10-08T06:34:38.374Z,67.56
2022-10-08T06:37:40.657Z,67.74
2022-10-08T06:40:43.026Z,67.57
2022-10-08T06:43:45.592Z,66.07
2022-10-08T06:46:47.994Z,65.95
2022-10-08T06:49:50.380Z,65.08
2022-10-08T06:52:52.741Z,64.35
2022-10-08T06:56:04.777Z,64.88
2022-10-08T06:59:07.580Z,62.36
2022-10-08T07:02:12.934Z,61.55
2022-10-08T07:05:15.435Z,60.97
2022-10-08T07:08:17.724Z,60.86
2022-10-08T07:11:20.489Z,59.50
2022-10-08T07:14:22.802Z,57.73
2022-10-08T07:17:29.169Z,56.66
2022-10-08T07:20:31.527Z,56.38
2022-10-08T07:23:34.073Z,56.36
2022-10-08T07:26:37.374Z,54.19
2022-10-08T07:29:39.814Z,55.01
2022-10-08T07:32:42.124Z,52.99
2022-10-08T07:35:44.457Z,52.55
2022-10-08T07:38:48.191Z,51.50
2022-10-08T07:41:50.585Z,50.76
2022-10-08T07:44:52.882Z,50.59
2022-10-08T07:47:55.658Z,51.56
2022-10-08T07:51:09.670Z,50.29
2022-10-08T07:54:14.482Z,50.33
2022-10-08T07:57:16.765Z,48.66
2022-10-08T08:00:21.618Z,50.03
2022-10-08T08:03:27.617Z,49.28
2022-10-08T08:06:31.107Z,47.91
2022-10-08T08:09:33.352Z,48.28
2022-10-08T08:12:35.729Z,48.64
2022-10-08T08:15:37.956Z,48.51
2022-10-08T08:18:42.505Z,46.62
2022-10-08T08:21:44.794Z,48.31
2022-10-08T08:24:47.108Z,47.82
2022-10-08T08:27:49.384Z,47.52
2022-10-08T08:30:51.601Z,48.45
2022-10-08T08:33:56.788Z,47.74
2022-10-08T08:36:59.521Z,47.34
2022-10-08T08:40:01.801Z,48.72
2022-10-08T08:43:04.112Z,47.77
2022-10-08T08:46:06.541Z,47.35
2022-10-08T08:49:19.234Z,47.45
2022-10-08T08:52:28.040Z,45.29
2022-10-08T08:55:43.763Z,46.67
2022-10-08T08:59:00.252Z,46.34
2022-10-08T09:02:08.726Z,48.29
2022-10-08T09:05:14.574Z,46.75
2022-10-08T09:08:28.728Z,45.85
2022-10-08T09:11:31.118Z,44.06
2022-10-08T09:14:40.162Z,44.72
2022-10-08T09:17:42.598Z,45.80
2022-10-08T09:20:45.094Z,44.79
2022-10-08T09:23:48.015Z,43.54
2022-10-08T09:26:51.134Z,44.10
2022-10-08T09:29:53.460Z,43.64
2022-10-08T09:33:00.781Z,44.38
2022-10-08T09:36:03.139Z,43.41
2022-10-08T09:39:14.285Z,43.44
2022-10-08T09:42:17.849Z,43.42
2022-10-08T09:45:34.338Z,43.93
2022-10-08T09:48:37.225Z,45.41
2022-10-08T09:51:42.279Z,43.51
2022-10-08T09:54:49.018Z,43.30
2022-10-08T09:57:55.354Z,43.94
2022-10-08T10:01:06.854Z,42.64
2022-10-08T10:04:19.542Z,44.48
2022-10-08T10:07:22.839Z,40.71
2022-10-08T10:10:29.034Z,40.66
2022-10-08T10:13:35.693Z,41.54
2022-10-08T10:16:43.050Z,42.26
2022-10-08T10:19:59.330Z,40.87
2022-10-08T10:23:14.882Z,41.78
2022-10-08T10:26:21.837Z,41.71
2022-10-08T10:29:28.906Z,41.91
2022-10-08T10:32:35.175Z,42.25
2022-10-08T10:35:46.005Z,42.92
2022-10-08T10:39:06.360Z,41.36
2022-10-08T10:42:44.059Z,40.25
2022-10-08T10:45:56.116Z,41.94
2022-10-08T10:48:59.337Z,41.48
2022-10-08T10:52:16.875Z,41.92
2022-10-08T10:55:19.209Z,41.36
2022-10-08T10:58:40.014Z,41.11
2022-10-08T11:01:57.118Z,40.03
2022-10-08T11:05:24.774Z,40.46
2022-10-08T11:08:57.852Z,38.08
2022-10-08T11:12:02.297Z,39.01
2022-10-08T11:15:31.636Z,37.69
2022-10-08T11:18:58.208Z,39.48
2022-10-08T11:22:18.302Z,38.42
2022-10-08T11:26:02.735Z,40.11
2022-10-08T11:29:30.755Z,38.90
2022-10-08T11:32:33.741Z,38.68
2022-10-08T11:35:45.530Z,37.60
2022-10-08T11:38:58.151Z,38.80
2022-10-08T11:42:25.028Z,40.02
2022-10-08T11:45:52.784Z,38.60
2022-10-08T11:49:00.878Z,38.90
2022-10-08T11:52:14.027Z,38.62
2022-10-08T11:55:23.550Z,39.77
2022-10-08T11:58:29.028Z,37.24
2022-10-08T12:01:31.354Z,37.79
2022-10-08T12:04:35.936Z,38.80
2022-10-08T12:07:39.733Z,39.10
2022-10-08T12:10:42.031Z,39.18
2022-10-08T12:13:44.789Z,38.71
2022-10-08T12:16:56.260Z,39.02
2022-10-08T12:20:12.324Z,37.98
2022-10-08T12:23:20.665Z,39.70
2022-10-08T12:26:22.930Z,40.83
2022-10-08T12:30:07.422Z,39.50
2022-10-08T12:33:09.667Z,41.80
2022-10-08T12:36:29.058Z,41.35
2022-10-08T12:39:41.397Z,40.32
2022-10-08T12:42:43.714Z,41.12
2022-10-08T12:46:33.910Z,40.88
2022-10-08T12:49:42.864Z,41.39
2022-10-08T12:52:45.462Z,41.71
2022-10-08T12:55:51.957Z,42.63
2022-10-08T12:59:01.378Z,42.28
2022-10-08T13:02:03.678Z,43.33
2022-10-08T13:05:28.122Z,43.92
2022-10-08T13:08:35.225Z,43.11
2022-10-08T13:11:37.547Z,43.30
2022-10-08T13:14:40.546Z,43.55
2022-10-08T13:17:42.832Z,44.03
2022-10-08T13:20:59.508Z,43.74
2022-10-08T13:24:12.090Z,44.61
2022-10-08T13:27:29.514Z,43.84
2022-10-08T13:30:32.124Z,45.96
2022-10-08T13:33:34.697Z,43.73
2022-10-08T13:36:38.039Z,46.11
2022-10-08T13:39:42.840Z,43.77
2022-10-08T13:42:48.578Z,44.93
2022-10-08T13:45:50.927Z,47.18
2022-10-08T13:48:53.217Z,44.08
2022-10-08T13:51:59.036Z,45.67
2022-10-08T13:55:07.700Z,44.92
2022-10-08T13:58:11.554Z,44.16
2022-10-08T14:01:13.856Z,45.93
2022-10-08T14:04:17.021Z,45.50
2022-10-08T14:07:26.250Z,46.25
2022-10-08T14:10:28.617Z,44.34
2022-10-08T14:13:31.032Z,44.40
2022-10-08T14:16:33.407Z,45.29
2022-10-08T14:19:35.778Z,45.28
2022-10-08T14:22:40.924Z,46.54
2022-10-08T14:25:43.170Z,46.37
2022-10-08T14:28:45.722Z,45.46
2022-10-08T14:31:48.108Z,48.01
2022-10-08T14:34:50.429Z,46.46
2022-10-08T14:37:52.750Z,45.75
2022-10-08T14:40:54.987Z,46.72
2022-10-08T14:43:57.353Z,47.16
2022-10-08T14:46:59.906Z,48.36
2022-10-08T14:50:02.579Z,46.69
2022-10-08T14:53:07.692Z,46.45
2022-10-08T14:56:12.806Z,49.21
2022-10-08T14:59:15.578Z,47.98
2022-10-08T15:02:18.005Z,48.91
2022-10-08T15:05:20.379Z,49.66
2022-10-08T15:08:22.757Z,49.35
2022-10-08T15:11:25.431Z,49.85
2022-10-08T15:14:27.805Z,50.10
2022-10-08T15:17:30.091Z,47.68
2022-10-08T15:20:34.347Z,48.98
2022-10-08T15:23:36.643Z,51.48
2022-10-08T15:26:39.005Z,52.11
2022-10-08T15:29:41.238Z,51.21
2022-10-08T15:32:43.569Z,51.73
2022-10-08T15:35:45.786Z,53.40
2022-10-08T15:38:49.451Z,53.69
2022-10-08T15:41:53.154Z,52.98
2022-10-08T15:44:55.540Z,53.79
2022-10-08T15:47:57.811Z,56.24
2022-10-08T15:51:00.459Z,54.96
2022-10-08T15:54:03.274Z,54.62
2022-10-08T15:57:06.522Z,54.75
2022-10-08T16:00:09.466Z,54.60
2022-10-08T16:03:14.140Z,55.26
2022-10-08T16:06:22.056Z,55.76
2022-10-08T16:09:24.378Z,57.00
2022-10-08T16:12:26.670Z,57.25
2022-10-08T16:15:28.946Z,58.33
2022-10-08T16:18:31.218Z,58.64
2022-10-08T16:21:34.538Z,58.96
2022-10-08T16:24:36.901Z,59.32
2022-10-08T16:27:39.150Z,59.73
2022-10-08T16:30:41.482Z,59.87
2022-10-08T16:33:44.021Z,61.14
2022-10-08T16:36:59.506Z,61.14
2022-10-08T16:40:04.025Z,62.01
2022-10-08T16:43:06.302Z,61.82
2022-10-08T16:46:22.776Z,61.88
2022-10-08T16:49:27.423Z,62.59
2022-10-08T16:52:29.709Z,63.01
2022-10-08T16:55:37.251Z,61.87
2022-10-08T16:58:39.727Z,62.36
2022-10-08T17:01:44.418Z,63.55
2022-10-08T17:04:46.742Z,63.82
2022-10-08T17:07:49.000Z,64.56
2022-10-08T17:10:51.335Z,63.57
2022-10-08T17:13:55.878Z,63.66
2022-10-08T17:16:58.227Z,64.21
2022-10-08T17:20:00.554Z,63.83
2022-10-08T17:23:02.805Z,64.26
2022-10-08T17:26:11.655Z,64.42
2022-10-08T17:29:14.047Z,64.25
2022-10-08T17:32:16.327Z,64.75
2022-10-08T17:35:18.612Z,64.04
2022-10-08T17:38:20.904Z,64.32
2022-10-08T17:41:31.622Z,65.05
2022-10-08T17:44:34.102Z,65.21
2022-10-08T17:47:36.452Z,65.68
2022-10-08T17:50:38.887Z,65.29
2022-10-08T17:53:41.950Z,64.88
2022-10-08T17:56:44.267Z,65.71
2022-10-08T17:59:46.548Z,65.71
2022-10-08T18:02:49.564Z,65.59
2022-10-08T18:05:57.486Z,65.78
2022-10-08T18:09:03.782Z,65.65
2022-10-08T18:12:06.287Z,65.37
2022-10-08T18:15:09.305Z,64.89
2022-10-08T18:18:11.585Z,65.69
2022-10-08T18:21:15.409Z,65.96
2022-10-08T18:24:17.940Z,65.59
2022-10-08T18:27:20.281Z,65.64
2022-10-08T18:30:22.541Z,65.72
2022-10-08T18:33:24.913Z,65.19
2022-10-08T18:36:29.317Z,65.16
2022-10-08T18:39:31.589Z,64.64
2022-10-08T18:42:33.933Z,64.96
2022-10-08T18:45:36.478Z,64.95
2022-10-08T18:48:38.981Z,64.85
2022-10-08T18:51:41.346Z,65.13
2022-10-08T18:54:43.633Z,65.15
2022-10-08T18:57:45.958Z,65.13
2022-10-08T19:00:48.256Z,65.58
2022-10-08T19:03:53.076Z,65.00
2022-10-08T19:06:55.375Z,65.31
2022-10-08T19:09:57.691Z,65.69
2022-10-08T19:12:59.936Z,65.80
2022-10-08T19:16:03.373Z,65.84
2022-10-08T19:19:09.769Z,66.42
2022-10-08T19:22:12.057Z,65.98
2022-10-08T19:25:14.339Z,65.66
2022-10-08T19:28:16.684Z,65.61
2022-10-08T19:31:22.035Z,66.36
2022-10-08T19:34:25.937Z,65.89
2022-10-08T19:37:28.299Z,65.67
2022-10-08T19:40:30.601Z,66.14
2022-10-08T19:43:32.897Z,65.61
2022-10-08T19:46:35.828Z,65.88
2022-10-08T19:49:38.186Z,66.12
2022-10-08T19:52:40.499Z,66.52
2022-10-08T19:55:42.788Z,66.63
2022-10-08T19:58:48.673Z,66.29
2022-10-08T20:01:51.236Z,66.62
2022-10-08T20:04:53.583Z,67.07
2022-10-08T20:07:55.826Z,66.95
2022-10-08T20:10:59.542Z,66.50
2022-10-08T20:14:01.917Z,66.53
2022-10-08T20:17:04.215Z,66.87
2022-10-08T20:20:28.230Z,66.13
2022-10-08T20:23:29.350Z,66.67
2022-10-08T20:26:33.486Z,66.34
2022-10-08T20:29:35.838Z,67.00
2022-10-08T20:32:38.103Z,66.95
2022-10-08T20:35:40.377Z,67.63
2022-10-08T20:38:43.365Z,67.22
2022-10-08T20:41:45.946Z,67.30
2022-10-08T20:44:48.241Z,67.52
2022-10-08T20:47:50.505Z,66.58
2022-10-08T20:50:52.785Z,66.45
2022-10-08T20:54:00.751Z,66.36
2022-10-08T20:57:03.046Z,67.21
2022-10-08T21:00:05.837Z,67.49
2022-10-08T21:03:08.090Z,66.79
2022-10-08T21:06:12.869Z,67.53
2022-10-08T21:09:16.429Z,67.55
2022-10-08T21:12:18.767Z,67.42
2022-10-08T21:15:21.043Z,67.30
2022-10-08T21:18:23.286Z,67.28
2022-10-08T21:21:26.848Z,67.28
2022-10-08T21:24:29.122Z,67.35
2022-10-08T21:27:31.395Z,67.25
2022-10-08T21:30:33.720Z,67.54
2022-10-08T21:33:41.163Z,67.03
2022-10-08T21:36:44.812Z,67.42
2022-10-08T21:39:47.173Z,67.53
2022-10-08T21:42:49.747Z,67.01
2022-10-08T21:45:56.823Z,67.14
2022-10-08T21:49:04.004Z,67.06
2022-10-08T21:52:06.337Z,66.85
2022-10-08T21:55:09.074Z,66.84
2022-10-08T21:58:11.333Z,66.03
2022-10-08T22:01:30.193Z,67.16
2022-10-08T22:04:32.483Z,67.02
2022-10-08T22:07:34.802Z,66.97
2022-10-08T22:10:37.624Z,67.51
2022-10-08T22:13:39.896Z,66.67
2022-10-08T22:16:42.422Z,66.22
2022-10-08T22:19:44.705Z,66.03
2022-10-08T22:22:47.256Z,66.88
2022-10-08T22:25:58.005Z,66.45
2022-10-08T22:29:00.770Z,67.21
2022-10-08T22:32:03.187Z,66.46
2022-10-08T22:35:05.947Z,67.15
2022-10-08T22:38:08.299Z,66.47
2022-10-08T22:41:13.492Z,67.02
2022-10-08T22:44:15.793Z,66.76
2022-10-08T22:47:18.029Z,66.76
2022-10-08T22:50:20.430Z,67.01
2022-10-08T22:53:22.674Z,66.73
2022-10-08T22:56:27.311Z,66.56
2022-10-08T22:59:30.502Z,66.70
2022-10-08T23:02:32.810Z,66.97
2022-10-08T23:05:35.083Z,67.35
2022-10-08T23:08:37.399Z,67.30
2022-10-08T23:11:39.709Z,67.34
2022-10-08T23:14:42.052Z,67.37
2022-10-08T23:17:44.312Z,67.35
2022-10-08T23:20:46.546Z,67.59
2022-10-08T23:23:49.915Z,67.87
2022-10-08T23:26:52.190Z,67.88
2022-10-08T23:29:56.212Z,68.26
2022-10-08T23:32:58.521Z,67.94
2022-10-08T23:36:00.803Z,68.54
2022-10-08T23:39:04.410Z,68.71
2022-10-08T23:42:06.713Z,67.72
2022-10-08T23:45:09.287Z,67.48
2022-10-08T23:48:11.646Z,67.36
2022-10-08T23:51:15.105Z,67.74
2022-10-08T23:54:17.391Z,67.38
2022-10-08T23:57:20.682Z,67.62
